Time;durP1;ratioP1;P1;durP2;ratioP2;P2;SDS_P1;SDS_P2;PMS_P1;PMS_P2;Temp;Humidity;BMP_temperature;BMP_pressure;BME280_temperature;BME280_humidity;BME280_pressure;Samples;Min_cycle;Max_cycle;Signal;HPM_P1;HPM_P2
2022/07/30 00:00:32;;;;;;;10.90;6.10;;;17.00;99.90;;;;;;3057221;19;20018;-67
2022/07/30 00:01:36;;;;;;;10.88;6.22;;;17.30;99.90;;;;;;3057982;19;20010;-67
2022/07/30 00:02:49;;;;;;;9.73;6.40;;;17.20;99.90;;;;;;3058267;19;20472;-67
2022/07/30 00:03:50;;;;;;;8.32;5.90;;;17.10;99.90;;;;;;3057779;19;20027;-67
2022/07/30 00:04:54;;;;;;;8.50;6.50;;;17.20;99.90;;;;;;3055367;19;20025;-68
2022/07/30 00:05:56;;;;;;;10.30;6.68;;;17.10;99.90;;;;;;3056862;19;20095;-67
2022/07/30 00:07:00;;;;;;;7.30;5.80;;;17.20;99.90;;;;;;3059562;19;20019;-67
2022/07/30 00:08:01;;;;;;;12.65;6.47;;;17.20;99.90;;;;;;3057910;19;20290;-67
2022/07/30 00:09:06;;;;;;;9.95;6.47;;;17.10;99.90;;;;;;3058087;19;20019;-67
2022/07/30 00:10:07;;;;;;;11.00;6.40;;;17.40;99.90;;;;;;3057819;19;20432;-67
2022/07/30 00:11:11;;;;;;;9.98;6.40;;;17.30;99.90;;;;;;3055540;19;20031;-67
2022/07/30 00:12:13;;;;;;;9.25;6.40;;;17.10;99.90;;;;;;3056811;19;20018;-67
2022/07/30 00:13:18;;;;;;;11.10;6.82;;;17.20;99.90;;;;;;3057237;19;20004;-67
2022/07/30 00:14:22;;;;;;;9.35;6.45;;;17.20;99.90;;;;;;3057037;19;20628;-67
2022/07/30 00:15:26;;;;;;;9.63;6.35;;;17.10;99.90;;;;;;3058125;19;20021;-68
2022/07/30 00:16:28;;;;;;;9.18;6.13;;;17.30;99.90;;;;;;3057761;19;20010;-67
2022/07/30 00:17:32;;;;;;;10.50;6.63;;;17.20;99.90;;;;;;3057926;19;20014;-67
2022/07/30 00:18:33;;;;;;;10.00;5.95;;;17.20;99.90;;;;;;3057705;19;20022;-67
2022/07/30 00:19:37;;;;;;;9.45;6.50;;;17.00;99.90;;;;;;3058079;19;20007;-67
2022/07/30 00:20:39;;;;;;;7.43;6.00;;;17.30;99.90;;;;;;3057662;19;20030;-67
2022/07/30 00:21:43;;;;;;;9.90;6.63;;;17.20;99.90;;;;;;3058901;19;20030;-67
2022/07/30 00:22:44;;;;;;;10.63;6.65;;;17.30;99.90;;;;;;3059171;19;20015;-67
2022/07/30 00:23:48;;;;;;;11.70;6.95;;;17.20;99.90;;;;;;3057140;19;20013;-67
2022/07/30 00:24:52;;;;;;;9.32;6.60;;;17.20;99.90;;;;;;3056490;19;20020;-68
2022/07/30 00:25:56;;;;;;;9.73;6.53;;;17.30;99.90;;;;;;3056233;19;20018;-68
2022/07/30 00:26:57;;;;;;;10.85;6.63;;;17.40;99.90;;;;;;3057236;19;20049;-67
2022/07/30 00:28:01;;;;;;;10.13;6.88;;;17.10;99.90;;;;;;3059723;19;20086;-67
2022/07/30 00:29:03;;;;;;;8.93;7.00;;;17.40;99.90;;;;;;3057910;19;20015;-69
2022/07/30 00:30:11;;;;;;;8.13;6.40;;;17.20;99.90;;;;;;3057934;19;20030;-67
2022/07/30 00:31:12;;;;;;;8.30;6.18;;;17.40;99.90;;;;;;3057798;19;20026;-67
2022/07/30 00:32:16;;;;;;;10.20;6.55;;;17.20;99.90;;;;;;3057832;19;20359;-67
2022/07/30 00:33:17;;;;;;;9.60;6.53;;;17.20;99.90;;;;;;3057727;19;20085;-67
2022/07/30 00:34:22;;;;;;;11.23;6.95;;;17.30;99.90;;;;;;3057887;19;20130;-68
2022/07/30 00:35:23;;;;;;;9.93;6.28;;;17.20;99.90;;;;;;3057384;19;20059;-67
2022/07/30 00:36:27;;;;;;;13.68;6.88;;;17.20;99.90;;;;;;3057814;19;20015;-67
2022/07/30 00:37:31;;;;;;;9.18;6.45;;;17.30;99.90;;;;;;3057509;19;20011;-67
2022/07/30 00:38:35;;;;;;;8.35;6.25;;;17.20;99.90;;;;;;3055301;19;20022;-67
2022/07/30 00:39:37;;;;;;;9.95;7.05;;;17.10;99.90;;;;;;3059005;19;20491;-67
2022/07/30 00:40:42;;;;;;;9.10;6.82;;;17.20;99.90;;;;;;3056403;19;20082;-67
2022/07/30 00:41:57;;;;;;;13.48;6.20;;;17.20;99.90;;;;;;3057554;19;20043;-67
2022/07/30 00:43:01;;;;;;;9.27;6.47;;;17.30;99.90;;;;;;3055898;19;20567;-67
2022/07/30 00:44:05;;;;;;;9.13;6.65;;;18.70;99.90;;;;;;3056574;19;20010;-67
2022/07/30 00:45:13;;;;;;;10.85;6.43;;;17.10;99.90;;;;;;3058218;19;20011;-67
2022/07/30 00:46:14;;;;;;;9.50;6.55;;;16.50;99.90;;;;;;3057864;19;20025;-67
2022/07/30 00:47:18;;;;;;;8.88;6.35;;;17.10;99.90;;;;;;3057588;19;20018;-67
2022/07/30 00:48:22;;;;;;;9.88;6.57;;;17.10;99.90;;;;;;3057284;19;20081;-67
2022/07/30 00:49:27;;;;;;;8.80;7.15;;;17.20;99.90;;;;;;3057321;19;20054;-68
2022/07/30 00:50:28;;;;;;;8.98;6.18;;;17.00;99.90;;;;;;3056662;19;20011;-68
2022/07/30 00:51:34;;;;;;;9.07;6.53;;;17.00;99.90;;;;;;3057120;19;20011;-67
2022/07/30 00:52:37;;;;;;;9.75;6.75;;;17.10;99.90;;;;;;3058529;19;20074;-67
2022/07/30 00:53:41;;;;;;;11.10;7.03;;;16.90;99.90;;;;;;3057349;19;20070;-67
2022/07/30 00:54:45;;;;;;;11.55;7.10;;;17.00;99.90;;;;;;3057011;19;20013;-67
2022/07/30 00:55:49;;;;;;;13.48;7.32;;;16.90;99.90;;;;;;3055983;19;20268;-67
2022/07/30 00:56:51;;;;;;;11.30;7.38;;;17.00;99.90;;;;;;3056712;19;20372;-67
2022/07/30 00:57:56;;;;;;;10.80;6.80;;;17.20;99.90;;;;;;3057170;19;20480;-68
2022/07/30 00:58:57;;;;;;;12.80;7.20;;;17.10;99.90;;;;;;3057481;19;20006;-67
2022/07/30 01:00:01;;;;;;;12.98;7.03;;;17.00;99.90;;;;;;3057281;19;20010;-67
2022/07/30 01:01:05;;;;;;;10.45;6.75;;;17.10;99.90;;;;;;3057061;19;20038;-67
2022/07/30 01:02:09;;;;;;;11.27;6.78;;;17.20;99.90;;;;;;3057204;19;20082;-67
2022/07/30 01:03:10;;;;;;;11.63;6.55;;;17.10;99.90;;;;;;3057462;19;20091;-67
2022/07/30 01:04:14;;;;;;;10.57;7.10;;;17.10;99.90;;;;;;3056488;19;20433;-67
2022/07/30 01:05:18;;;;;;;10.65;7.43;;;16.90;99.90;;;;;;3057522;19;20013;-67
2022/07/30 01:06:19;;;;;;;10.13;6.63;;;16.90;99.90;;;;;;3057214;19;20031;-68
2022/07/30 01:07:23;;;;;;;10.00;6.53;;;16.90;99.90;;;;;;3057495;19;20010;-67
2022/07/30 01:08:25;;;;;;;11.98;7.07;;;16.90;99.90;;;;;;3057930;19;20465;-67
2022/07/30 01:09:29;;;;;;;12.10;7.18;;;16.90;99.90;;;;;;3058202;19;20486;-67
2022/07/30 01:10:30;;;;;;;10.43;6.82;;;17.00;99.90;;;;;;3057399;19;20014;-68
2022/07/30 01:11:38;;;;;;;10.50;6.90;;;16.90;99.90;;;;;;3056921;19;20015;-67
2022/07/30 01:12:41;;;;;;;8.45;6.93;;;16.90;99.90;;;;;;3057039;19;20397;-67
2022/07/30 01:13:46;;;;;;;10.30;6.47;;;16.80;99.90;;;;;;3057351;19;20596;-68
2022/07/30 01:14:48;;;;;;;12.77;6.68;;;16.90;99.90;;;;;;3055811;19;20022;-67
2022/07/30 01:15:52;;;;;;;14.00;6.63;;;17.00;99.90;;;;;;3058143;19;20014;-67
2022/07/30 01:16:56;;;;;;;10.18;6.18;;;16.80;99.90;;;;;;3057020;19;20018;-67
2022/07/30 01:18:04;;;;;;;9.30;6.57;;;16.80;99.90;;;;;;3056969;19;20007;-67
2022/07/30 01:20:32;;;;;;;10.07;6.65;;;16.90;99.90;;;;;;3058346;19;20097;-67
2022/07/30 01:21:40;;;;;;;10.13;6.60;;;16.70;99.90;;;;;;3057010;19;20325;-67
2022/07/30 01:22:56;;;;;;;8.77;6.53;;;16.70;99.90;;;;;;3057026;19;20353;-67
2022/07/30 01:24:05;;;;;;;9.68;6.10;;;16.70;99.90;;;;;;3055858;19;20038;-68
2022/07/30 01:25:17;;;;;;;8.80;6.20;;;16.70;99.90;;;;;;3057846;19;20019;-67
2022/07/30 01:26:21;;;;;;;7.97;5.82;;;16.50;99.90;;;;;;3056867;19;20026;-67
2022/07/30 01:27:27;;;;;;;11.10;6.22;;;16.60;99.90;;;;;;3057555;19;20034;-67
2022/07/30 01:28:32;;;;;;;11.32;6.22;;;16.60;99.90;;;;;;3057595;19;20029;-67
2022/07/30 01:29:37;;;;;;;9.02;5.95;;;16.60;99.90;;;;;;3057096;19;20014;-67
2022/07/30 01:30:40;;;;;;;8.30;5.50;;;16.70;99.90;;;;;;3056825;19;20463;-67
2022/07/30 01:31:46;;;;;;;7.75;5.95;;;17.50;99.90;;;;;;3056825;19;20021;-67
2022/07/30 01:32:50;;;;;;;7.72;6.40;;;16.70;99.90;;;;;;3057249;19;20021;-67
2022/07/30 01:33:54;;;;;;;8.55;5.72;;;16.60;99.90;;;;;;3058302;19;20380;-68
2022/07/30 01:34:58;;;;;;;7.65;5.65;;;16.50;99.90;;;;;;3057075;19;20035;-67
2022/07/30 01:36:03;;;;;;;8.65;5.70;;;16.60;99.90;;;;;;3056897;19;20024;-67
2022/07/30 01:37:07;;;;;;;9.27;5.65;;;16.50;99.90;;;;;;3057830;19;20038;-67
2022/07/30 01:38:15;;;;;;;8.13;5.80;;;16.50;99.90;;;;;;3056994;19;20010;-67
2022/07/30 01:39:18;;;;;;;8.68;5.78;;;16.80;99.90;;;;;;3057286;19;20516;-67
2022/07/30 01:40:23;;;;;;;7.93;5.95;;;16.40;99.90;;;;;;3056973;19;20014;-67
2022/07/30 01:41:28;;;;;;;11.02;6.00;;;16.50;99.90;;;;;;3057223;19;20014;-67
2022/07/30 01:42:34;;;;;;;9.02;6.25;;;16.30;99.90;;;;;;3057215;19;20022;-68
2022/07/30 01:43:37;;;;;;;9.52;6.47;;;16.50;99.90;;;;;;3057404;19;20011;-68
2022/07/30 01:44:42;;;;;;;11.05;6.40;;;16.30;99.90;;;;;;3057051;19;20010;-67
2022/07/30 01:45:45;;;;;;;11.52;6.38;;;16.50;99.90;;;;;;3056417;19;20018;-68
2022/07/30 01:46:50;;;;;;;9.98;6.25;;;16.30;99.90;;;;;;3057109;19;20009;-67
2022/07/30 01:47:53;;;;;;;10.05;6.63;;;16.40;99.90;;;;;;3056720;19;20035;-67
2022/07/30 01:48:59;;;;;;;9.75;6.25;;;16.40;99.90;;;;;;3057042;19;20062;-67
2022/07/30 01:50:03;;;;;;;8.65;6.30;;;16.30;99.90;;;;;;3056851;19;20017;-67
2022/07/30 01:51:08;;;;;;;8.23;6.35;;;16.30;99.90;;;;;;3057121;19;20165;-67
2022/07/30 01:52:11;;;;;;;10.30;6.53;;;16.70;99.90;;;;;;3056841;19;20279;-68
2022/07/30 01:53:19;;;;;;;10.18;5.90;;;16.70;99.90;;;;;;3056895;19;20078;-67
2022/07/30 01:54:23;;;;;;;8.57;6.07;;;16.40;99.90;;;;;;3057589;19;20010;-67
2022/07/30 01:55:31;;;;;;;8.13;5.95;;;16.30;99.90;;;;;;3058243;19;20043;-67
2022/07/30 01:56:37;;;;;;;8.75;6.30;;;16.60;99.90;;;;;;3059055;19;20026;-67
2022/07/30 01:57:42;;;;;;;9.05;5.90;;;16.30;99.90;;;;;;3060484;19;20022;-67
2022/07/30 01:58:47;;;;;;;9.70;6.20;;;16.20;99.90;;;;;;3060844;19;20019;-68
2022/07/30 01:59:53;;;;;;;8.25;6.13;;;16.20;99.90;;;;;;3061253;19;20032;-67
2022/07/30 02:00:57;;;;;;;7.50;5.80;;;16.20;99.90;;;;;;3059386;19;20035;-68
2022/07/30 02:02:01;;;;;;;7.65;6.20;;;16.10;99.90;;;;;;3059810;19;20018;-67
2022/07/30 02:03:03;;;;;;;8.75;6.15;;;16.00;99.90;;;;;;3059595;19;20019;-67
2022/07/30 02:04:07;;;;;;;7.75;5.70;;;16.20;99.90;;;;;;3059251;19;20013;-67
2022/07/30 02:05:09;;;;;;;10.30;6.10;;;16.10;99.90;;;;;;3059160;19;20018;-67
2022/07/30 02:06:21;;;;;;;9.65;6.32;;;16.00;99.90;;;;;;3058586;19;20015;-67
2022/07/30 02:07:28;;;;;;;10.80;6.53;;;16.20;99.90;;;;;;3061309;19;20010;-67
2022/07/30 02:08:39;;;;;;;8.57;6.43;;;16.10;99.90;;;;;;3060308;19;20021;-67
2022/07/30 02:09:48;;;;;;;12.18;6.35;;;16.10;99.90;;;;;;3060402;19;20018;-67
2022/07/30 02:10:59;;;;;;;9.32;6.30;;;15.90;99.90;;;;;;3059425;19;20130;-67
2022/07/30 02:13:25;;;;;;;13.23;7.57;;;16.00;99.90;;;;;;3060541;19;20062;-66
2022/07/30 02:14:34;;;;;;;13.55;7.03;;;16.10;99.90;;;;;;3059115;19;20086;-67
2022/07/30 02:15:47;;;;;;;10.20;6.90;;;16.00;99.90;;;;;;3058447;19;20014;-67
2022/07/30 02:16:52;;;;;;;9.35;6.95;;;15.70;99.90;;;;;;3059642;19;19998;-67
2022/07/30 02:18:01;;;;;;;10.20;6.53;;;16.00;99.90;;;;;;3059529;19;20003;-68
2022/07/30 02:19:07;;;;;;;13.68;7.20;;;16.40;99.90;;;;;;3061038;19;20014;-67
2022/07/30 02:20:14;;;;;;;12.30;6.82;;;15.90;99.90;;;;;;3061041;19;20020;-67
2022/07/30 02:21:18;;;;;;;8.73;6.75;;;15.90;99.90;;;;;;3059368;19;19999;-67
2022/07/30 02:22:23;;;;;;;10.55;6.60;;;15.80;99.90;;;;;;3058945;19;20002;-67
2022/07/30 02:23:27;;;;;;;9.10;6.40;;;16.30;99.90;;;;;;3059446;19;20014;-67
2022/07/30 02:24:33;;;;;;;9.27;6.65;;;16.40;99.90;;;;;;3058451;19;20485;-67
2022/07/30 02:25:37;;;;;;;9.75;6.40;;;16.00;99.90;;;;;;3060740;19;20031;-67
2022/07/30 02:26:45;;;;;;;9.10;6.75;;;16.20;99.90;;;;;;3058735;19;20010;-67
2022/07/30 02:27:57;;;;;;;9.45;6.80;;;16.00;99.90;;;;;;3059151;19;20010;-67
2022/07/30 02:29:01;;;;;;;9.80;6.47;;;16.60;99.90;;;;;;3060432;19;20011;-67
2022/07/30 02:30:06;;;;;;;10.40;6.75;;;15.80;99.90;;;;;;3059092;19;20049;-68
2022/07/30 02:31:10;;;;;;;13.15;6.65;;;15.90;99.90;;;;;;3059800;19;20078;-67
2022/07/30 02:32:17;;;;;;;8.82;6.22;;;15.90;99.90;;;;;;3059171;19;20302;-67
2022/07/30 02:33:25;;;;;;;9.32;6.63;;;15.80;99.90;;;;;;3059385;19;20433;-67
2022/07/30 02:34:31;;;;;;;11.25;6.65;;;16.00;99.90;;;;;;3059082;19;20452;-67
2022/07/30 02:35:37;;;;;;;9.82;6.65;;;15.80;99.90;;;;;;3059386;19;20087;-67
2022/07/30 02:36:40;;;;;;;12.02;7.28;;;15.90;99.90;;;;;;3059262;19;20010;-67
2022/07/30 02:37:46;;;;;;;8.65;6.70;;;15.90;99.90;;;;;;3059239;19;20015;-67
2022/07/30 02:38:49;;;;;;;12.23;6.93;;;15.70;99.90;;;;;;3059455;19;20015;-67
2022/07/30 02:39:54;;;;;;;10.13;6.95;;;15.90;99.90;;;;;;3059177;19;19995;-67
2022/07/30 02:41:01;;;;;;;10.50;7.18;;;16.00;99.90;;;;;;3059090;19;20492;-67
2022/07/30 02:42:05;;;;;;;12.73;7.82;;;15.90;99.90;;;;;;3059430;19;20010;-67
2022/07/30 02:43:13;;;;;;;10.75;7.70;;;15.80;99.90;;;;;;3060180;19;20043;-68
2022/07/30 02:44:16;;;;;;;9.15;6.78;;;15.80;99.90;;;;;;3058871;19;20022;-68
2022/07/30 02:45:21;;;;;;;11.52;7.72;;;15.80;99.90;;;;;;3058679;19;20074;-67
2022/07/30 02:46:24;;;;;;;8.98;7.03;;;15.90;99.90;;;;;;3059406;19;20022;-67
2022/07/30 02:47:29;;;;;;;10.75;8.30;;;15.80;99.90;;;;;;3059080;19;20353;-67
2022/07/30 02:48:31;;;;;;;10.75;7.70;;;15.70;99.90;;;;;;3058580;19;20029;-67
2022/07/30 02:49:38;;;;;;;8.98;6.93;;;15.90;99.90;;;;;;3059535;19;20018;-67
2022/07/30 02:50:43;;;;;;;9.73;7.22;;;15.90;99.90;;;;;;3060642;19;20353;-67
2022/07/30 02:51:48;;;;;;;9.77;7.25;;;15.80;99.90;;;;;;3059717;19;20022;-67
2022/07/30 02:52:54;;;;;;;10.50;7.57;;;15.70;99.90;;;;;;3059771;19;20030;-67
2022/07/30 02:53:57;;;;;;;10.95;7.25;;;15.70;99.90;;;;;;3058782;19;20021;-68
2022/07/30 02:55:02;;;;;;;10.63;7.82;;;15.80;99.90;;;;;;3058561;19;20350;-66
2022/07/30 02:56:06;;;;;;;13.18;8.35;;;15.80;99.90;;;;;;3059121;19;20010;-67
2022/07/30 02:57:11;;;;;;;10.32;7.60;;;15.70;99.90;;;;;;3057789;19;20034;-67
2022/07/30 02:58:18;;;;;;;10.77;8.70;;;15.80;99.90;;;;;;3059348;19;20023;-67
2022/07/30 02:59:25;;;;;;;12.43;8.90;;;15.90;99.90;;;;;;3059242;19;20019;-67
2022/07/30 03:00:28;;;;;;;12.65;7.55;;;15.80;99.90;;;;;;3059103;19;20489;-67
2022/07/30 03:01:34;;;;;;;11.75;8.13;;;15.80;99.90;;;;;;3058723;19;20014;-66
2022/07/30 03:02:36;;;;;;;10.20;7.93;;;15.90;99.90;;;;;;3059100;19;20724;-67
2022/07/30 03:03:41;;;;;;;10.70;7.70;;;15.80;99.90;;;;;;3058765;19;20006;-67
2022/07/30 03:04:44;;;;;;;11.75;8.00;;;15.80;99.90;;;;;;3058129;19;20014;-67
2022/07/30 03:05:51;;;;;;;13.45;8.43;;;15.80;99.90;;;;;;3056546;19;20505;-67
2022/07/30 03:06:54;;;;;;;13.30;8.85;;;15.90;99.90;;;;;;3058804;19;20015;-67
2022/07/30 03:08:00;;;;;;;11.63;8.25;;;15.90;99.90;;;;;;3057203;19;20021;-67
2022/07/30 03:09:03;;;;;;;8.50;7.45;;;15.90;99.90;;;;;;3058789;19;20593;-67
2022/07/30 03:10:09;;;;;;;9.90;7.80;;;15.90;99.90;;;;;;3058797;19;20011;-66
2022/07/30 03:11:11;;;;;;;10.77;7.38;;;15.80;99.90;;;;;;3058559;19;20015;-68
2022/07/30 03:12:17;;;;;;;9.40;7.07;;;15.70;99.90;;;;;;3058712;19;20151;-67
2022/07/30 03:13:23;;;;;;;11.30;7.15;;;15.80;99.90;;;;;;3058745;19;20071;-67
2022/07/30 03:14:27;;;;;;;12.88;7.10;;;15.70;99.90;;;;;;3057841;19;20030;-67
2022/07/30 03:15:30;;;;;;;10.65;7.22;;;15.60;99.90;;;;;;3058810;19;20499;-67
2022/07/30 03:16:38;;;;;;;10.93;7.57;;;15.70;99.90;;;;;;3059055;19;20083;-67
2022/07/30 03:17:42;;;;;;;12.40;8.13;;;15.80;99.90;;;;;;3058615;19;20039;-67
2022/07/30 03:18:48;;;;;;;12.45;8.32;;;15.60;99.90;;;;;;3058792;19;20022;-67
2022/07/30 03:19:51;;;;;;;8.73;7.28;;;15.80;99.90;;;;;;3059614;19;20022;-67
2022/07/30 03:20:58;;;;;;;10.73;8.00;;;15.40;99.90;;;;;;3058082;19;21886;-67
2022/07/30 03:22:02;;;;;;;9.55;7.32;;;15.70;99.90;;;;;;3058203;19;20380;-67
2022/07/30 03:23:07;;;;;;;14.48;7.82;;;15.60;99.90;;;;;;3058641;19;20126;-67
2022/07/30 03:24:10;;;;;;;9.00;6.88;;;15.60;99.90;;;;;;3059568;19;20104;-67
2022/07/30 03:25:16;;;;;;;11.23;8.55;;;15.70;99.90;;;;;;3058126;19;20031;-67
2022/07/30 03:26:20;;;;;;;10.00;8.02;;;15.60;99.90;;;;;;3058514;19;20464;-67
2022/07/30 03:27:25;;;;;;;12.05;8.05;;;15.40;99.90;;;;;;3059179;19;20015;-67
2022/07/30 03:28:31;;;;;;;9.05;7.18;;;15.40;99.90;;;;;;3058513;19;20021;-67
2022/07/30 03:29:38;;;;;;;9.32;7.15;;;15.50;99.90;;;;;;3058558;19;20026;-67
2022/07/30 03:30:42;;;;;;;9.20;7.18;;;15.40;99.90;;;;;;3058507;19;20480;-66
2022/07/30 03:31:46;;;;;;;10.10;7.55;;;15.60;99.90;;;;;;3058740;19;20030;-66
2022/07/30 03:32:49;;;;;;;9.25;7.80;;;15.40;99.90;;;;;;3058298;19;20010;-67
2022/07/30 03:33:53;;;;;;;12.15;7.75;;;15.50;99.90;;;;;;3059657;19;20118;-66
2022/07/30 03:34:55;;;;;;;9.93;7.25;;;15.40;99.90;;;;;;3058289;19;20038;-67
2022/07/30 03:36:00;;;;;;;12.38;7.25;;;15.40;99.90;;;;;;3058695;19;19998;-67
2022/07/30 03:37:06;;;;;;;11.48;7.50;;;15.40;99.90;;;;;;3056972;19;20014;-67
2022/07/30 03:38:10;;;;;;;10.63;7.50;;;15.30;99.90;;;;;;3059706;19;20478;-67
2022/07/30 03:39:15;;;;;;;11.77;7.80;;;15.50;99.90;;;;;;3057474;19;20444;-67
2022/07/30 03:40:17;;;;;;;11.38;8.40;;;15.40;99.90;;;;;;3057883;19;20002;-67
2022/07/30 03:41:22;;;;;;;12.95;8.63;;;15.40;99.90;;;;;;3060171;19;20358;-67
2022/07/30 03:42:25;;;;;;;11.02;8.48;;;15.20;99.90;;;;;;3058349;19;20014;-67
2022/07/30 03:43:32;;;;;;;11.27;8.43;;;15.40;99.90;;;;;;3058426;19;20010;-67
2022/07/30 03:44:35;;;;;;;15.00;8.93;;;16.50;99.90;;;;;;3059803;19;20027;-67
2022/07/30 03:45:39;;;;;;;;;;;15.40;99.90;;;;;;3058834;19;20456;-67
2022/07/30 03:46:42;;;;;;;14.20;8.35;;;15.40;99.90;;;;;;3059326;19;20256;-67
2022/07/30 03:47:47;;;;;;;10.98;8.43;;;15.30;99.90;;;;;;3058519;19;20011;-67
2022/07/30 03:48:50;;;;;;;11.95;9.07;;;15.30;99.90;;;;;;3059846;19;20031;-67
2022/07/30 03:49:54;;;;;;;10.30;8.65;;;15.20;99.90;;;;;;3058481;19;20434;-68
2022/07/30 03:50:57;;;;;;;11.60;8.15;;;15.20;99.90;;;;;;3058243;19;20039;-67
2022/07/30 03:52:03;;;;;;;12.13;8.30;;;15.40;99.90;;;;;;3059037;19;20010;-67
2022/07/30 03:53:06;;;;;;;13.70;8.85;;;15.30;99.90;;;;;;3059320;19;20051;-67
2022/07/30 03:54:10;;;;;;;10.63;8.85;;;15.40;99.90;;;;;;3058660;19;20482;-67
2022/07/30 03:55:12;;;;;;;11.82;8.70;;;15.30;99.90;;;;;;3057806;19;20006;-67
2022/07/30 03:56:16;;;;;;;;;;;15.50;99.90;;;;;;3059054;19;20010;-68
2022/07/30 03:57:18;;;;;;;14.07;8.88;;;15.10;99.90;;;;;;3058276;19;19967;-67
2022/07/30 03:58:22;;;;;;;14.68;9.05;;;15.20;99.90;;;;;;3058568;19;20014;-67
2022/07/30 03:59:27;;;;;;;14.57;9.73;;;15.50;99.90;;;;;;3058300;19;20035;-67
2022/07/30 04:00:31;;;;;;;11.38;9.27;;;15.30;99.90;;;;;;3058209;19;20013;-67
2022/07/30 04:01:33;;;;;;;12.80;8.93;;;15.30;99.90;;;;;;3059253;19;20018;-67
2022/07/30 04:02:44;;;;;;;12.70;8.73;;;15.30;99.90;;;;;;3057824;19;20031;-67
2022/07/30 04:03:45;;;;;;;12.13;9.23;;;15.30;99.90;;;;;;3057823;19;20082;-67
2022/07/30 04:04:49;;;;;;;12.20;9.05;;;15.40;99.90;;;;;;3057877;19;20370;-67
2022/07/30 04:05:50;;;;;;;12.48;9.05;;;15.30;99.90;;;;;;3057934;19;20011;-67
2022/07/30 04:06:54;;;;;;;14.88;9.40;;;15.30;99.90;;;;;;3058328;19;20403;-67
2022/07/30 04:07:55;;;;;;;13.55;8.90;;;15.30;99.90;;;;;;3057833;19;20319;-68
2022/07/30 04:08:59;;;;;;;12.45;9.02;;;15.30;99.90;;;;;;3058056;19;20018;-67
2022/07/30 04:10:01;;;;;;;13.90;9.07;;;15.40;99.90;;;;;;3058223;19;20022;-67
2022/07/30 04:11:05;;;;;;;11.57;8.70;;;15.30;99.90;;;;;;3058305;19;20026;-67
2022/07/30 04:12:06;;;;;;;12.45;9.40;;;15.40;99.90;;;;;;3057815;19;20034;-67
2022/07/30 04:13:10;;;;;;;;;;;15.50;99.90;;;;;;3058630;19;20463;-67
2022/07/30 04:14:11;;;;;;;13.57;9.15;;;15.40;99.90;;;;;;3057699;19;20209;-67
2022/07/30 04:15:18;;;;;;;13.82;9.50;;;16.20;99.90;;;;;;3057872;19;20491;-67
2022/07/30 04:16:28;;;;;;;13.95;10.07;;;15.30;99.90;;;;;;3059062;19;20018;-67
2022/07/30 04:17:37;;;;;;;11.27;8.75;;;15.10;99.90;;;;;;3056572;19;20022;-67
2022/07/30 04:18:46;;;;;;;11.55;8.75;;;15.40;99.90;;;;;;3058337;19;20038;-67
2022/07/30 04:19:54;;;;;;;14.85;8.90;;;15.20;99.90;;;;;;3056632;19;20010;-67
2022/07/30 04:20:57;;;;;;;11.75;8.65;;;15.40;99.90;;;;;;3057981;19;20018;-68
2022/07/30 04:22:03;;;;;;;12.77;8.57;;;15.30;99.90;;;;;;3057714;19;20085;-68
2022/07/30 04:23:05;;;;;;;13.05;8.95;;;15.40;99.90;;;;;;3057831;19;20063;-67
2022/07/30 04:24:11;;;;;;;14.52;9.18;;;15.70;99.90;;;;;;3056322;19;20023;-67
2022/07/30 04:25:13;;;;;;;11.73;8.85;;;15.40;99.90;;;;;;3058508;19;20026;-67
2022/07/30 04:26:18;;;;;;;10.73;8.93;;;15.40;99.90;;;;;;3057623;19;20361;-67
2022/07/30 04:27:20;;;;;;;14.43;8.68;;;15.30;99.90;;;;;;3056723;19;20381;-67
2022/07/30 04:28:24;;;;;;;11.65;8.85;;;15.30;99.90;;;;;;3056577;19;20014;-67
2022/07/30 04:29:26;;;;;;;13.20;9.15;;;15.30;99.90;;;;;;3058743;19;20456;-67
2022/07/30 04:30:33;;;;;;;14.13;9.68;;;15.30;99.90;;;;;;3058716;19;20049;-67
2022/07/30 04:31:35;;;;;;;14.77;9.40;;;15.40;99.90;;;;;;3059040;19;20094;-67
2022/07/30 04:32:39;;;;;;;12.70;9.60;;;15.30;99.90;;;;;;3057586;19;20011;-67
2022/07/30 04:33:43;;;;;;;14.02;9.52;;;15.40;99.90;;;;;;3059650;19;20018;-67
2022/07/30 04:34:49;;;;;;;13.63;9.35;;;15.20;99.90;;;;;;3057735;19;20010;-67
2022/07/30 04:35:50;;;;;;;14.52;9.63;;;15.40;99.90;;;;;;3058041;19;20110;-67
2022/07/30 04:36:54;;;;;;;16.17;10.52;;;15.30;99.90;;;;;;3057487;19;20401;-67
2022/07/30 04:37:56;;;;;;;14.02;10.07;;;15.30;99.90;;;;;;3055877;19;20014;-67
2022/07/30 04:39:00;;;;;;;13.68;10.23;;;15.20;99.90;;;;;;3058895;19;20087;-67
2022/07/30 04:40:02;;;;;;;15.60;10.38;;;15.10;99.90;;;;;;3057762;19;20031;-68
2022/07/30 04:41:06;;;;;;;16.90;10.93;;;15.50;99.90;;;;;;3057625;19;20010;-67
2022/07/30 04:42:08;;;;;;;14.73;10.68;;;15.40;99.90;;;;;;3057620;19;20023;-67
2022/07/30 04:43:11;;;;;;;15.20;11.18;;;15.20;99.90;;;;;;3057668;19;20023;-67
2022/07/30 04:44:13;;;;;;;14.45;11.60;;;15.50;99.90;;;;;;3057915;19;20006;-67
2022/07/30 04:45:18;;;;;;;15.48;10.98;;;15.20;99.90;;;;;;3055997;19;20022;-66
2022/07/30 04:46:22;;;;;;;17.85;11.63;;;15.20;99.90;;;;;;3057336;19;20010;-67
2022/07/30 04:47:27;;;;;;;18.33;11.82;;;16.50;99.90;;;;;;3057400;19;20018;-67
2022/07/30 04:48:29;;;;;;;15.57;11.65;;;15.40;99.90;;;;;;3057548;19;20010;-67
2022/07/30 04:49:33;;;;;;;17.80;12.30;;;15.00;99.90;;;;;;3057507;19;20011;-67
2022/07/30 04:50:38;;;;;;;17.30;12.05;;;15.10;99.90;;;;;;3057666;19;20014;-67
2022/07/30 04:51:44;;;;;;;16.92;12.38;;;15.20;99.90;;;;;;3056643;19;20015;-67
2022/07/30 04:52:46;;;;;;;19.80;12.25;;;15.30;99.90;;;;;;3057517;19;20002;-67
2022/07/30 04:53:52;;;;;;;17.15;11.57;;;15.20;99.90;;;;;;3057332;19;20015;-67
2022/07/30 04:54:56;;;;;;;15.02;11.60;;;15.20;99.90;;;;;;3057266;19;20035;-67
2022/07/30 04:56:02;;;;;;;16.73;12.45;;;15.10;99.90;;;;;;3054931;19;20023;-67
2022/07/30 04:57:04;;;;;;;18.38;12.15;;;15.10;99.90;;;;;;3058899;19;20015;-67
2022/07/30 04:58:10;;;;;;;17.38;12.43;;;15.10;99.90;;;;;;3058355;19;20014;-67
2022/07/30 04:59:15;;;;;;;23.48;13.15;;;15.10;99.90;;;;;;3057451;19;20033;-67
2022/07/30 05:00:17;;;;;;;19.92;13.40;;;15.20;99.90;;;;;;3057245;19;20007;-67
2022/07/30 05:01:33;;;;;;;20.38;13.38;;;15.50;99.90;;;;;;3057592;19;20394;-67
2022/07/30 05:02:38;;;;;;;19.27;13.05;;;14.90;99.90;;;;;;3056857;19;20014;-67
2022/07/30 05:03:43;;;;;;;20.23;12.95;;;15.10;99.90;;;;;;3056487;19;20014;-67
2022/07/30 05:04:49;;;;;;;19.92;13.45;;;15.10;99.90;;;;;;3057271;19;20017;-67
2022/07/30 05:05:51;;;;;;;18.20;13.05;;;15.40;99.90;;;;;;3056409;19;20030;-67
2022/07/30 05:06:58;;;;;;;20.83;13.82;;;15.40;99.90;;;;;;3057391;19;20033;-67
2022/07/30 05:08:01;;;;;;;18.30;12.30;;;15.20;99.90;;;;;;3056334;19;20483;-66
2022/07/30 05:09:05;;;;;;;19.80;13.82;;;15.60;99.90;;;;;;3057234;19;20011;-67
2022/07/30 05:10:09;;;;;;;19.75;13.00;;;15.20;99.90;;;;;;3057248;19;20010;-67
2022/07/30 05:11:14;;;;;;;19.92;13.35;;;15.40;99.90;;;;;;3057513;19;20015;-67
2022/07/30 05:12:15;;;;;;;20.00;13.90;;;15.70;99.90;;;;;;3057108;19;20027;-67
2022/07/30 05:13:19;;;;;;;19.25;13.52;;;15.30;99.90;;;;;;3057269;19;20015;-67
2022/07/30 05:14:24;;;;;;;20.17;13.23;;;15.30;99.90;;;;;;3054726;19;20118;-67
2022/07/30 05:15:28;;;;;;;19.33;13.95;;;15.10;99.90;;;;;;3055173;19;20034;-68
2022/07/30 05:16:33;;;;;;;22.13;14.15;;;15.40;99.90;;;;;;3057808;19;20014;-68
2022/07/30 05:17:38;;;;;;;19.42;13.45;;;15.40;99.90;;;;;;3057257;19;20472;-69
2022/07/30 05:18:39;;;;;;;18.80;13.18;;;15.90;99.90;;;;;;3056295;19;20015;-68
2022/07/30 05:19:43;;;;;;;21.25;14.60;;;15.50;99.90;;;;;;3056439;19;20014;-68
2022/07/30 05:20:45;;;;;;;21.92;14.43;;;15.50;99.90;;;;;;3057028;19;20018;-67
2022/07/30 05:21:49;;;;;;;19.98;14.98;;;15.50;99.90;;;;;;3057280;19;20043;-68
2022/07/30 05:22:50;;;;;;;20.00;14.15;;;15.70;99.90;;;;;;3056973;19;20011;-68
2022/07/30 05:23:54;;;;;;;20.30;13.98;;;15.50;99.90;;;;;;3053086;19;20010;-68
2022/07/30 05:24:56;;;;;;;20.40;14.75;;;15.50;99.90;;;;;;3057991;19;20022;-67
2022/07/30 05:26:00;;;;;;;21.75;14.27;;;15.50;99.90;;;;;;3056159;19;20044;-68
2022/07/30 05:27:04;;;;;;;19.35;13.23;;;15.70;99.90;;;;;;3056285;19;20026;-67
2022/07/30 05:28:05;;;;;;;19.65;13.10;;;15.60;99.90;;;;;;3054422;19;20035;-68
2022/07/30 05:29:09;;;;;;;20.90;13.75;;;15.70;99.90;;;;;;3056045;19;20010;-67
2022/07/30 05:30:11;;;;;;;17.85;13.23;;;15.70;99.90;;;;;;3062028;19;20035;-68
2022/07/30 05:31:15;;;;;;;18.48;13.05;;;15.70;99.90;;;;;;3061428;19;20024;-68
2022/07/30 05:32:19;;;;;;;20.33;13.82;;;15.70;99.90;;;;;;3059952;19;20487;-68
2022/07/30 05:33:23;;;;;;;21.33;14.05;;;15.70;99.90;;;;;;3060362;19;20031;-69
2022/07/30 05:34:24;;;;;;;17.98;13.50;;;17.90;99.90;;;;;;3061325;19;20018;-68